createdAt,value
2023-04-01T00:02:31.541Z,99.90
2023-04-01T00:06:36.216Z,99.90
2023-04-01T00:10:39.474Z,99.90
2023-04-01T00:14:42.965Z,99.90
2023-04-01T00:18:48.453Z,99.90
2023-04-01T00:22:54.234Z,99.90
2023-04-01T00:26:57.841Z,99.90
2023-04-01T00:31:07.373Z,99.90
2023-04-01T00:35:13.548Z,99.90
2023-04-01T00:39:16.916Z,99.90
2023-04-01T00:43:22.946Z,99.90
2023-04-01T00:47:28.169Z,99.90
2023-04-01T00:51:33.517Z,99.90
2023-04-01T00:55:41.386Z,99.90
2023-04-01T00:59:47.183Z,99.90
2023-04-01T01:03:50.383Z,99.90
2023-04-01T01:08:02.382Z,99.90
2023-04-01T01:12:14.631Z,99.90
2023-04-01T01:16:22.965Z,99.90
2023-04-01T01:20:54.150Z,99.90
2023-04-01T01:25:21.060Z,99.90
2023-04-01T01:30:12.225Z,99.90
2023-04-01T01:34:24.767Z,99.90
2023-04-01T01:38:33.652Z,99.90
2023-04-01T01:42:39.576Z,99.90
2023-04-01T01:46:45.271Z,99.90
2023-04-01T01:50:49.792Z,99.90
2023-04-01T01:54:57.260Z,99.90
2023-04-01T01:59:04.563Z,99.90
2023-04-01T02:03:08.413Z,99.90
2023-04-01T02:07:18.330Z,99.90
2023-04-01T02:11:29.340Z,99.90
2023-04-01T02:15:37.295Z,99.90
2023-04-01T02:19:43.480Z,99.90
2023-04-01T02:23:48.682Z,99.90
2023-04-01T02:27:57.316Z,99.90
2023-04-01T02:32:01.083Z,99.90
2023-04-01T02:36:04.692Z,99.90
2023-04-01T02:40:09.550Z,99.90
2023-04-01T02:44:17.293Z,99.90
2023-04-01T02:48:20.859Z,99.90
2023-04-01T02:52:25.442Z,99.90
2023-04-01T02:56:29.166Z,99.90
2023-04-01T03:00:33.845Z,99.90
2023-04-01T03:04:37.182Z,99.90
2023-04-01T03:08:41.055Z,99.90
2023-04-01T03:12:44.456Z,99.90
2023-04-01T03:16:49.364Z,99.90
2023-04-01T03:20:52.941Z,99.90
2023-04-01T03:24:56.122Z,99.90
2023-04-01T03:28:59.437Z,99.90
2023-04-01T03:33:04.892Z,99.90
2023-04-01T03:37:08.370Z,99.90
2023-04-01T03:41:15.704Z,99.90
2023-04-01T03:45:21.538Z,99.90
2023-04-01T03:49:26.280Z,99.90
2023-04-01T03:53:29.590Z,99.90
2023-04-01T03:57:34.998Z,99.90
2023-04-01T04:01:38.229Z,99.90
2023-04-01T04:05:50.013Z,99.90
2023-04-01T04:09:53.178Z,99.90
2023-04-01T04:13:58.486Z,99.90
2023-04-01T04:18:02.001Z,99.90
2023-04-01T04:22:06.769Z,99.90
2023-04-01T04:26:12.685Z,99.90
2023-04-01T04:30:17.231Z,99.90
2023-04-01T04:34:20.601Z,99.90
2023-04-01T04:38:25.355Z,99.90
2023-04-01T04:42:28.781Z,99.90
2023-04-01T04:46:32.140Z,99.90
2023-04-01T04:50:36.528Z,99.90
2023-04-01T04:54:41.159Z,99.90
2023-04-01T04:58:44.392Z,99.90
2023-04-01T05:02:47.862Z,99.90
2023-04-01T05:06:52.870Z,99.90
2023-04-01T05:10:57.624Z,99.90
2023-04-01T05:15:01.051Z,99.90
2023-04-01T05:19:04.259Z,99.90
2023-04-01T05:23:07.706Z,99.90
2023-04-01T05:27:12.304Z,99.90
2023-04-01T05:31:15.565Z,99.90
2023-04-01T05:35:19.420Z,99.90
2023-04-01T05:39:23.040Z,99.90
2023-04-01T05:43:28.466Z,99.90
2023-04-01T05:47:31.799Z,99.90
2023-04-01T05:51:37.125Z,99.90
2023-04-01T05:55:40.378Z,99.90
2023-04-01T05:59:45.732Z,99.90
2023-04-01T06:03:49.333Z,99.90
2023-04-01T06:07:55.765Z,99.90
2023-04-01T06:12:22.548Z,99.90
2023-04-01T06:16:40.920Z,99.90
2023-04-01T06:20:52.285Z,99.90
2023-04-01T06:25:09.650Z,99.90
2023-04-01T06:29:43.467Z,99.90
2023-04-01T06:34:06.345Z,99.90
2023-04-01T06:38:41.895Z,99.90
2023-04-01T06:43:02.776Z,99.90
2023-04-01T06:47:22.340Z,99.90
2023-04-01T06:51:38.712Z,99.90
2023-04-01T06:55:47.080Z,99.90
2023-04-01T06:59:51.139Z,99.90
2023-04-01T07:03:59.059Z,99.90
2023-04-01T07:08:06.997Z,99.90
2023-04-01T07:12:22.519Z,99.90
2023-04-01T07:16:32.532Z,99.90
2023-04-01T07:20:39.121Z,99.90
2023-04-01T07:24:46.990Z,99.90
2023-04-01T07:28:51.488Z,99.90
2023-04-01T07:32:58.664Z,99.90
2023-04-01T07:37:10.325Z,99.90
2023-04-01T07:41:26.683Z,99.90
2023-04-01T07:45:36.943Z,99.90
2023-04-01T07:49:52.074Z,99.90
2023-04-01T07:54:03.614Z,99.90
2023-04-01T07:58:16.414Z,99.90
2023-04-01T08:02:31.368Z,96.70
2023-04-01T08:06:42.390Z,92.20
2023-04-01T08:10:54.105Z,90.20
2023-04-01T08:15:10.144Z,85.50
2023-04-01T08:19:24.577Z,86.30
2023-04-01T08:23:31.806Z,85.90
2023-04-01T08:27:39.461Z,84.30
2023-04-01T08:31:52.473Z,83.60
2023-04-01T08:36:00.354Z,82.50
2023-04-01T08:40:19.614Z,78.80
2023-04-01T08:44:48.421Z,80.30
2023-04-01T08:49:08.521Z,81.80
2023-04-01T08:53:19.135Z,81.60
2023-04-01T08:57:38.260Z,81.80
2023-04-01T09:02:11.407Z,82.80
2023-04-01T09:06:34.042Z,85.70
2023-04-01T09:10:55.967Z,84.70
2023-04-01T09:15:38.922Z,85.60
2023-04-01T09:20:02.995Z,88.30
2023-04-01T09:24:34.179Z,87.90
2023-04-01T09:28:48.480Z,87.50
2023-04-01T09:33:23.745Z,88.10
2023-04-01T09:37:37.022Z,86.00
2023-04-01T09:41:57.406Z,87.50
2023-04-01T09:46:25.500Z,85.60
2023-04-01T09:50:39.277Z,81.40
2023-04-01T09:55:05.046Z,81.80
2023-04-01T09:59:43.785Z,83.30
2023-04-01T10:04:20.162Z,84.70
2023-04-01T10:09:02.180Z,85.30
2023-04-01T10:13:51.278Z,86.80
2023-04-01T10:18:22.604Z,85.10
2023-04-01T10:23:04.870Z,86.40
2023-04-01T10:27:46.668Z,85.50
2023-04-01T10:32:39.129Z,85.90
2023-04-01T10:37:06.216Z,87.60
2023-04-01T10:41:37.985Z,86.10
2023-04-01T10:46:07.742Z,82.50
2023-04-01T10:50:34.585Z,80.10
2023-04-01T10:54:51.725Z,78.60
2023-04-01T10:59:22.761Z,75.80
2023-04-01T11:03:57.834Z,78.30
2023-04-01T11:08:30.473Z,78.60
2023-04-01T11:13:23.534Z,78.10
2023-04-01T11:18:06.020Z,80.50
2023-04-01T11:22:34.309Z,79.20
2023-04-01T11:26:50.581Z,79.50
2023-04-01T11:31:14.473Z,78.20
2023-04-01T11:35:52.554Z,80.30
2023-04-01T11:40:05.311Z,78.70
2023-04-01T11:44:19.945Z,77.70
2023-04-01T11:48:38.431Z,78.20
2023-04-01T11:53:04.763Z,79.60
2023-04-01T11:57:37.870Z,79.40
2023-04-01T12:01:58.455Z,76.90
2023-04-01T12:06:06.562Z,76.70
2023-04-01T12:10:20.989Z,76.90
2023-04-01T12:14:36.640Z,74.80
2023-04-01T12:18:44.899Z,73.90
2023-04-01T12:22:57.729Z,73.30
2023-04-01T12:27:27.373Z,73.40
2023-04-01T12:31:40.945Z,72.00
2023-04-01T12:35:56.966Z,73.80
2023-04-01T12:40:22.914Z,73.60
2023-04-01T12:44:47.366Z,74.20
2023-04-01T12:49:19.308Z,71.90
2023-04-01T12:53:41.147Z,72.10
2023-04-01T12:58:09.764Z,73.60
2023-04-01T13:02:23.204Z,71.90
2023-04-01T13:06:42.293Z,71.20
2023-04-01T13:10:56.659Z,72.00
2023-04-01T13:15:18.020Z,72.60
2023-04-01T13:19:28.134Z,72.90
2023-04-01T13:23:44.506Z,72.20
2023-04-01T13:27:53.374Z,72.90
2023-04-01T13:32:09.560Z,71.50
2023-04-01T13:36:29.188Z,73.30
2023-04-01T13:41:02.213Z,71.90
2023-04-01T13:45:17.582Z,70.50
2023-04-01T13:49:54.371Z,72.30
2023-04-01T13:54:31.657Z,72.60
2023-04-01T13:59:00.606Z,69.10
2023-04-01T14:03:26.970Z,68.20
2023-04-01T14:07:57.840Z,66.00
2023-04-01T14:12:08.402Z,64.80
2023-04-01T14:16:42.119Z,62.60
2023-04-01T14:20:53.613Z,61.30
2023-04-01T14:25:25.382Z,59.60
2023-04-01T14:29:39.091Z,57.50
2023-04-01T14:33:49.704Z,57.20
2023-04-01T14:38:17.302Z,56.00
2023-04-01T14:43:08.507Z,58.50
2023-04-01T14:47:30.993Z,57.60
2023-04-01T14:51:38.753Z,60.40
2023-04-01T14:55:53.152Z,61.70
2023-04-01T15:00:12.191Z,60.80
2023-04-01T15:04:34.404Z,64.60
2023-04-01T15:08:46.419Z,65.00
2023-04-01T15:13:00.180Z,66.00
2023-04-01T15:17:19.142Z,66.80
2023-04-01T15:21:45.820Z,64.70
2023-04-01T15:26:15.724Z,67.30
2023-04-01T15:30:37.357Z,68.90
2023-04-01T15:34:51.387Z,64.30
2023-04-01T15:38:58.536Z,68.20
2023-04-01T15:43:13.677Z,71.00
2023-04-01T15:47:47.001Z,71.60
2023-04-01T15:52:05.075Z,71.80
2023-04-01T15:56:27.505Z,71.30
2023-04-01T16:00:33.239Z,72.60
2023-04-01T16:04:53.020Z,70.10
2023-04-01T16:09:30.975Z,70.00
2023-04-01T16:13:47.216Z,77.60
2023-04-01T16:18:17.629Z,77.10
2023-04-01T16:22:29.271Z,77.20
2023-04-01T16:26:39.754Z,78.40
2023-04-01T16:30:48.811Z,76.70
2023-04-01T16:35:05.807Z,83.40
2023-04-01T16:39:29.678Z,86.30
2023-04-01T16:43:47.458Z,86.00
2023-04-01T16:47:55.864Z,88.40
2023-04-01T16:52:16.868Z,90.00
2023-04-01T16:56:25.255Z,90.60
2023-04-01T17:00:39.943Z,91.00
2023-04-01T17:04:47.315Z,91.80
2023-04-01T17:09:07.884Z,91.90
2023-04-01T17:13:37.148Z,92.00
2023-04-01T17:17:52.318Z,92.00
2023-04-01T17:22:07.016Z,92.50
2023-04-01T17:26:23.385Z,92.50
2023-04-01T17:30:33.537Z,92.80
2023-04-01T17:34:51.718Z,93.00
2023-04-01T17:39:09.282Z,93.00
2023-04-01T17:43:28.051Z,93.20
2023-04-01T17:47:40.529Z,93.50
2023-04-01T17:51:54.619Z,93.50
2023-04-01T17:56:37.155Z,93.90
2023-04-01T18:00:55.883Z,94.10
2023-04-01T18:05:27.015Z,94.40
2023-04-01T18:09:45.958Z,94.50
2023-04-01T18:14:25.489Z,93.50
2023-04-01T18:18:56.651Z,93.70
2023-04-01T18:23:04.244Z,91.30
2023-04-01T18:27:21.013Z,89.30
2023-04-01T18:31:29.282Z,89.30
2023-04-01T18:35:50.687Z,90.20
2023-04-01T18:40:02.177Z,92.80
2023-04-01T18:44:40.207Z,95.50
2023-04-01T18:48:55.823Z,97.50
2023-04-01T18:53:11.897Z,97.50
2023-04-01T18:57:17.998Z,99.90
2023-04-01T19:01:35.092Z,99.90
2023-04-01T19:05:43.336Z,99.90
2023-04-01T19:09:51.073Z,99.90
2023-04-01T19:14:09.287Z,99.90
2023-04-01T19:18:35.479Z,99.90
2023-04-01T19:22:56.721Z,99.90
2023-04-01T19:27:10.097Z,99.90
2023-04-01T19:31:32.494Z,99.90
2023-04-01T19:35:46.310Z,99.90
2023-04-01T19:39:57.996Z,99.90
2023-04-01T19:44:13.854Z,99.90
2023-04-01T19:48:44.224Z,99.90
2023-04-01T19:52:52.547Z,99.90
2023-04-01T19:57:04.201Z,99.90
2023-04-01T20:01:17.704Z,99.90
2023-04-01T20:05:38.601Z,99.90
2023-04-01T20:09:57.706Z,99.90
2023-04-01T20:14:12.566Z,99.90
2023-04-01T20:18:20.966Z,99.90
2023-04-01T20:22:38.528Z,99.90
2023-04-01T20:26:47.153Z,99.90
2023-04-01T20:31:05.203Z,99.90
2023-04-01T20:35:42.412Z,99.90
2023-04-01T20:40:23.744Z,99.90
2023-04-01T20:44:35.918Z,99.90
2023-04-01T20:49:16.653Z,99.90
2023-04-01T20:53:30.197Z,99.90
2023-04-01T20:57:40.718Z,99.90
2023-04-01T21:01:52.736Z,99.90
2023-04-01T21:06:31.728Z,99.90
2023-04-01T21:10:46.407Z,99.90
2023-04-01T21:15:15.916Z,99.90
2023-04-01T21:19:33.275Z,99.90
2023-04-01T21:23:54.445Z,99.90
2023-04-01T21:28:27.541Z,99.90
2023-04-01T21:32:45.441Z,99.90
2023-04-01T21:37:08.197Z,99.90
2023-04-01T21:41:36.042Z,99.90
2023-04-01T21:45:53.555Z,99.90
2023-04-01T21:50:15.919Z,99.90
2023-04-01T21:54:44.445Z,99.90
2023-04-01T21:59:15.898Z,99.90
2023-04-01T22:03:56.838Z,99.90
2023-04-01T22:08:07.299Z,99.90
2023-04-01T22:12:19.316Z,99.90
2023-04-01T22:16:28.328Z,99.90
2023-04-01T22:20:38.146Z,99.90
2023-04-01T22:24:53.316Z,99.90
2023-04-01T22:29:07.536Z,99.90
2023-04-01T22:33:16.666Z,99.90
2023-04-01T22:37:29.058Z,99.90
2023-04-01T22:41:46.736Z,99.90
2023-04-01T22:46:31.553Z,99.90
2023-04-01T22:50:38.672Z,99.90
2023-04-01T22:54:45.942Z,99.90
2023-04-01T22:58:54.615Z,99.90
2023-04-01T23:03:16.384Z,99.90
2023-04-01T23:07:36.597Z,99.90
2023-04-01T23:11:46.855Z,99.90
2023-04-01T23:15:52.703Z,99.90
2023-04-01T23:20:06.918Z,99.90
2023-04-01T23:24:19.164Z,99.90
2023-04-01T23:28:35.337Z,99.90
2023-04-01T23:32:38.637Z,99.90
2023-04-01T23:36:46.089Z,99.90
2023-04-01T23:40:52.364Z,99.90
2023-04-01T23:44:59.443Z,99.90
2023-04-01T23:49:04.058Z,99.90
2023-04-01T23:53:18.671Z,99.90
2023-04-01T23:57:26.731Z,99.90
